Stonewall, Texas
Current Conditions -  °F | °C
As of 9:35 AM on Sunday 21 Dec 2014 (Local Time) from KT82 Reporting Station
Overcast Overcast  
Wind Chill: 42°   Ceiling: 600
Heat Index: 47°   Visibility: 7mi
Dew Point: 45°   Wind: 12mph
Humidity: 92%   Direction: 200°SSW
Pressure: 30.08"   Gusts: NA
Location:  30.24°N, 98.67°W
Report Text: KT82 211535Z AUTO 20010KT 7SM OVC006 09/07 A3008 RMK AO2 T00860073
Loading
Personal Weather Stations






























Interactive Weather Map New forecast layout! Learn more

10-Day Weather Forecast

Advertisements
Track Severe Weather on mobile